sensor_id;sensor_type;location;lat;lon;timestamp;pressure;altitude;pressure_sealevel;temperature;humidity
57847;BME280;43675;50.030;21.952;2023-04-27T00:00:23;98739.81;;;5.06;54.14
57847;BME280;43675;50.030;21.952;2023-04-27T00:03:10;98737.80;;;5.06;54.10
57847;BME280;43675;50.030;21.952;2023-04-27T00:05:37;98737.04;;;5.08;54.04
57847;BME280;43675;50.030;21.952;2023-04-27T00:08:05;98740.42;;;5.08;54.09
57847;BME280;43675;50.030;21.952;2023-04-27T00:10:31;98741.30;;;5.07;54.11
57847;BME280;43675;50.030;21.952;2023-04-27T00:12:58;98743.55;;;5.06;53.87
57847;BME280;43675;50.030;21.952;2023-04-27T00:15:24;98740.48;;;5.04;54.50
57847;BME280;43675;50.030;21.952;2023-04-27T00:17:51;98736.61;;;5.03;54.26
57847;BME280;43675;50.030;21.952;2023-04-27T00:20:17;98740.08;;;5.01;54.34
57847;BME280;43675;50.030;21.952;2023-04-27T00:22:44;98737.64;;;4.99;54.59
57847;BME280;43675;50.030;21.952;2023-04-27T00:25:11;98734.86;;;4.97;54.80
57847;BME280;43675;50.030;21.952;2023-04-27T00:27:37;98738.77;;;4.95;54.85
57847;BME280;43675;50.030;21.952;2023-04-27T00:30:05;98731.70;;;4.94;54.98
57847;BME280;43675;50.030;21.952;2023-04-27T00:32:31;98735.25;;;4.93;55.13
57847;BME280;43675;50.030;21.952;2023-04-27T00:34:58;98736.14;;;4.93;55.18
57847;BME280;43675;50.030;21.952;2023-04-27T00:37:25;98736.28;;;4.92;55.26
57847;BME280;43675;50.030;21.952;2023-04-27T00:39:51;98738.45;;;4.92;55.40
57847;BME280;43675;50.030;21.952;2023-04-27T00:42:17;98738.95;;;4.91;55.43
57847;BME280;43675;50.030;21.952;2023-04-27T00:44:45;98734.38;;;4.89;55.50
57847;BME280;43675;50.030;21.952;2023-04-27T00:47:12;98733.64;;;4.89;55.41
57847;BME280;43675;50.030;21.952;2023-04-27T00:49:39;98730.23;;;4.90;55.77
57847;BME280;43675;50.030;21.952;2023-04-27T00:52:06;98735.11;;;4.90;55.66
57847;BME280;43675;50.030;21.952;2023-04-27T00:54:33;98741.27;;;4.89;56.00
57847;BME280;43675;50.030;21.952;2023-04-27T00:56:59;98730.13;;;4.89;55.82
57847;BME280;43675;50.030;21.952;2023-04-27T00:59:26;98738.50;;;4.88;55.97
57847;BME280;43675;50.030;21.952;2023-04-27T01:01:53;98740.41;;;4.87;56.12
57847;BME280;43675;50.030;21.952;2023-04-27T01:04:20;98738.71;;;4.86;56.17
57847;BME280;43675;50.030;21.952;2023-04-27T01:06:47;98737.09;;;4.87;56.20
57847;BME280;43675;50.030;21.952;2023-04-27T01:09:13;98740.39;;;4.86;56.29
57847;BME280;43675;50.030;21.952;2023-04-27T01:11:40;98737.65;;;4.85;56.60
57847;BME280;43675;50.030;21.952;2023-04-27T01:14:06;98741.39;;;4.85;56.24
57847;BME280;43675;50.030;21.952;2023-04-27T01:16:33;98741.48;;;4.84;56.42
57847;BME280;43675;50.030;21.952;2023-04-27T01:19:00;98740.55;;;4.83;56.53
57847;BME280;43675;50.030;21.952;2023-04-27T01:21:27;98740.55;;;4.83;56.64
57847;BME280;43675;50.030;21.952;2023-04-27T01:23:53;98747.08;;;4.83;56.75
57847;BME280;43675;50.030;21.952;2023-04-27T01:26:20;98749.81;;;4.83;56.90
57847;BME280;43675;50.030;21.952;2023-04-27T01:28:47;98750.05;;;4.82;56.74
57847;BME280;43675;50.030;21.952;2023-04-27T01:31:13;98752.91;;;4.82;56.94
57847;BME280;43675;50.030;21.952;2023-04-27T01:33:40;98754.08;;;4.81;57.04
57847;BME280;43675;50.030;21.952;2023-04-27T01:36:08;98759.33;;;4.79;57.18
57847;BME280;43675;50.030;21.952;2023-04-27T01:38:35;98759.55;;;4.78;57.35
57847;BME280;43675;50.030;21.952;2023-04-27T01:41:04;98755.23;;;4.77;57.29
57847;BME280;43675;50.030;21.952;2023-04-27T01:43:31;98757.76;;;4.77;57.75
57847;BME280;43675;50.030;21.952;2023-04-27T01:46:10;98759.59;;;4.76;57.77
57847;BME280;43675;50.030;21.952;2023-04-27T01:48:38;98758.87;;;4.74;57.60
57847;BME280;43675;50.030;21.952;2023-04-27T01:51:05;98757.44;;;4.74;57.67
57847;BME280;43675;50.030;21.952;2023-04-27T01:53:32;98753.23;;;4.74;57.63
57847;BME280;43675;50.030;21.952;2023-04-27T01:55:59;98756.98;;;4.72;57.77
57847;BME280;43675;50.030;21.952;2023-04-27T01:58:25;98758.27;;;4.70;57.91
57847;BME280;43675;50.030;21.952;2023-04-27T02:00:52;98761.55;;;4.70;57.60
57847;BME280;43675;50.030;21.952;2023-04-27T02:03:18;98754.85;;;4.68;57.93
57847;BME280;43675;50.030;21.952;2023-04-27T02:05:45;98760.70;;;4.68;57.78
57847;BME280;43675;50.030;21.952;2023-04-27T02:08:12;98757.95;;;4.67;58.10
57847;BME280;43675;50.030;21.952;2023-04-27T02:10:38;98756.59;;;4.67;57.91
57847;BME280;43675;50.030;21.952;2023-04-27T02:13:05;98758.02;;;4.67;58.13
57847;BME280;43675;50.030;21.952;2023-04-27T02:15:32;98761.95;;;4.65;58.32
57847;BME280;43675;50.030;21.952;2023-04-27T02:17:58;98761.59;;;4.63;58.29
57847;BME280;43675;50.030;21.952;2023-04-27T02:20:24;98762.13;;;4.62;58.44
57847;BME280;43675;50.030;21.952;2023-04-27T02:22:51;98764.56;;;4.61;58.40
57847;BME280;43675;50.030;21.952;2023-04-27T02:25:18;98766.58;;;4.59;58.59
57847;BME280;43675;50.030;21.952;2023-04-27T02:27:44;98767.84;;;4.57;58.57
57847;BME280;43675;50.030;21.952;2023-04-27T02:30:11;98770.48;;;4.55;58.68
57847;BME280;43675;50.030;21.952;2023-04-27T02:32:38;98766.94;;;4.54;58.92
57847;BME280;43675;50.030;21.952;2023-04-27T02:35:05;98766.20;;;4.52;59.20
57847;BME280;43675;50.030;21.952;2023-04-27T02:37:31;98773.09;;;4.51;59.06
57847;BME280;43675;50.030;21.952;2023-04-27T02:39:58;98767.77;;;4.51;59.07
57847;BME280;43675;50.030;21.952;2023-04-27T02:42:25;98770.87;;;4.49;59.12
57847;BME280;43675;50.030;21.952;2023-04-27T02:44:51;98772.09;;;4.48;59.28
57847;BME280;43675;50.030;21.952;2023-04-27T02:47:18;98778.12;;;4.47;59.46
57847;BME280;43675;50.030;21.952;2023-04-27T02:49:44;98779.42;;;4.45;59.71
57847;BME280;43675;50.030;21.952;2023-04-27T02:52:11;98780.05;;;4.45;59.73
57847;BME280;43675;50.030;21.952;2023-04-27T02:54:37;98781.60;;;4.44;59.56
57847;BME280;43675;50.030;21.952;2023-04-27T02:57:04;98782.89;;;4.41;59.76
57847;BME280;43675;50.030;21.952;2023-04-27T02:59:31;98782.36;;;4.40;59.85
57847;BME280;43675;50.030;21.952;2023-04-27T03:01:58;98784.61;;;4.39;59.81
57847;BME280;43675;50.030;21.952;2023-04-27T03:04:24;98788.72;;;4.38;59.60
57847;BME280;43675;50.030;21.952;2023-04-27T03:06:51;98787.02;;;4.37;60.15
57847;BME280;43675;50.030;21.952;2023-04-27T03:09:17;98788.64;;;4.35;60.05
57847;BME280;43675;50.030;21.952;2023-04-27T03:11:44;98791.38;;;4.32;60.22
57847;BME280;43675;50.030;21.952;2023-04-27T03:14:10;98790.92;;;4.32;60.20
57847;BME280;43675;50.030;21.952;2023-04-27T03:16:37;98789.76;;;4.31;60.45
57847;BME280;43675;50.030;21.952;2023-04-27T03:19:03;98793.04;;;4.30;60.61
57847;BME280;43675;50.030;21.952;2023-04-27T03:21:30;98793.70;;;4.29;60.66
57847;BME280;43675;50.030;21.952;2023-04-27T03:23:56;98796.43;;;4.28;60.58
57847;BME280;43675;50.030;21.952;2023-04-27T03:26:23;98795.91;;;4.28;60.28
57847;BME280;43675;50.030;21.952;2023-04-27T03:28:49;98794.84;;;4.28;60.18
57847;BME280;43675;50.030;21.952;2023-04-27T03:31:16;98799.28;;;4.30;60.27
57847;BME280;43675;50.030;21.952;2023-04-27T03:33:42;98800.98;;;4.29;60.50
57847;BME280;43675;50.030;21.952;2023-04-27T03:36:09;98800.27;;;4.28;60.64
57847;BME280;43675;50.030;21.952;2023-04-27T03:38:35;98800.11;;;4.28;60.67
57847;BME280;43675;50.030;21.952;2023-04-27T03:41:02;98803.96;;;4.29;60.69
57847;BME280;43675;50.030;21.952;2023-04-27T03:43:29;98803.21;;;4.29;60.85
57847;BME280;43675;50.030;21.952;2023-04-27T03:45:56;98806.13;;;4.30;60.57
57847;BME280;43675;50.030;21.952;2023-04-27T03:48:22;98809.05;;;4.31;60.61
57847;BME280;43675;50.030;21.952;2023-04-27T03:50:49;98810.34;;;4.32;60.78
57847;BME280;43675;50.030;21.952;2023-04-27T03:53:15;98817.00;;;4.33;60.91
57847;BME280;43675;50.030;21.952;2023-04-27T03:55:43;98817.74;;;4.34;60.69
57847;BME280;43675;50.030;21.952;2023-04-27T03:58:10;98821.98;;;4.36;60.66
57847;BME280;43675;50.030;21.952;2023-04-27T04:00:37;98819.58;;;4.38;60.80
57847;BME280;43675;50.030;21.952;2023-04-27T04:03:04;98822.75;;;4.40;60.55
57847;BME280;43675;50.030;21.952;2023-04-27T04:05:31;98823.63;;;4.42;61.08
57847;BME280;43675;50.030;21.952;2023-04-27T04:07:58;98821.71;;;4.44;60.57
57847;BME280;43675;50.030;21.952;2023-04-27T04:10:24;98829.67;;;4.47;60.53
57847;BME280;43675;50.030;21.952;2023-04-27T04:12:51;98830.84;;;4.50;60.56
57847;BME280;43675;50.030;21.952;2023-04-27T04:15:18;98834.81;;;4.52;60.55
57847;BME280;43675;50.030;21.952;2023-04-27T04:17:45;98835.96;;;4.53;60.47
57847;BME280;43675;50.030;21.952;2023-04-27T04:20:12;98842.31;;;4.53;60.38
57847;BME280;43675;50.030;21.952;2023-04-27T04:22:39;98837.36;;;4.53;60.32
57847;BME280;43675;50.030;21.952;2023-04-27T04:25:05;98845.44;;;4.54;60.43
57847;BME280;43675;50.030;21.952;2023-04-27T04:27:32;98846.12;;;4.57;60.51
57847;BME280;43675;50.030;21.952;2023-04-27T04:29:59;98848.94;;;4.62;60.52
57847;BME280;43675;50.030;21.952;2023-04-27T04:32:26;98850.04;;;4.65;60.61
57847;BME280;43675;50.030;21.952;2023-04-27T04:34:52;98854.88;;;4.69;60.46
57847;BME280;43675;50.030;21.952;2023-04-27T04:37:19;98860.63;;;4.76;60.44
57847;BME280;43675;50.030;21.952;2023-04-27T04:39:45;98862.87;;;4.81;60.29
57847;BME280;43675;50.030;21.952;2023-04-27T04:42:12;98865.73;;;4.86;60.24
57847;BME280;43675;50.030;21.952;2023-04-27T04:44:38;98864.90;;;4.90;59.98
57847;BME280;43675;50.030;21.952;2023-04-27T04:47:05;98872.40;;;4.96;60.08
57847;BME280;43675;50.030;21.952;2023-04-27T04:49:32;98870.65;;;5.00;60.16
57847;BME280;43675;50.030;21.952;2023-04-27T04:51:58;98870.48;;;5.06;59.86
57847;BME280;43675;50.030;21.952;2023-04-27T04:54:25;98873.61;;;5.11;59.70
57847;BME280;43675;50.030;21.952;2023-04-27T04:56:51;98872.15;;;5.18;59.73
57847;BME280;43675;50.030;21.952;2023-04-27T04:59:18;98875.01;;;5.24;59.48
57847;BME280;43675;50.030;21.952;2023-04-27T05:01:44;98880.21;;;5.31;59.53
57847;BME280;43675;50.030;21.952;2023-04-27T05:04:11;98881.61;;;5.40;59.12
57847;BME280;43675;50.030;21.952;2023-04-27T05:06:37;98881.39;;;5.54;59.12
57847;BME280;43675;50.030;21.952;2023-04-27T05:09:04;98880.36;;;5.69;58.93
57847;BME280;43675;50.030;21.952;2023-04-27T05:11:31;98882.86;;;5.78;58.58
57847;BME280;43675;50.030;21.952;2023-04-27T05:13:57;98887.25;;;5.83;58.44
57847;BME280;43675;50.030;21.952;2023-04-27T05:16:24;98887.59;;;5.90;58.29
57847;BME280;43675;50.030;21.952;2023-04-27T05:18:50;98889.41;;;5.95;58.19
57847;BME280;43675;50.030;21.952;2023-04-27T05:21:17;98894.02;;;6.01;58.20
57847;BME280;43675;50.030;21.952;2023-04-27T05:23:43;98892.48;;;5.99;57.88
57847;BME280;43675;50.030;21.952;2023-04-27T05:26:14;98895.79;;;5.94;57.89
57847;BME280;43675;50.030;21.952;2023-04-27T05:28:41;98898.13;;;5.89;57.93
57847;BME280;43675;50.030;21.952;2023-04-27T05:31:08;98902.77;;;5.87;58.00
57847;BME280;43675;50.030;21.952;2023-04-27T05:33:35;98905.31;;;5.88;58.09
57847;BME280;43675;50.030;21.952;2023-04-27T05:36:01;98906.75;;;5.80;57.89
57847;BME280;43675;50.030;21.952;2023-04-27T05:38:28;98911.99;;;5.70;58.14
57847;BME280;43675;50.030;21.952;2023-04-27T05:40:57;98912.93;;;5.59;58.14
57847;BME280;43675;50.030;21.952;2023-04-27T05:43:25;98914.08;;;5.53;58.40
57847;BME280;43675;50.030;21.952;2023-04-27T05:45:52;98912.52;;;5.53;58.61
57847;BME280;43675;50.030;21.952;2023-04-27T05:48:19;98913.44;;;5.58;58.71
57847;BME280;43675;50.030;21.952;2023-04-27T05:50:45;98918.85;;;5.60;58.48
57847;BME280;43675;50.030;21.952;2023-04-27T05:53:12;98920.75;;;5.59;58.47
57847;BME280;43675;50.030;21.952;2023-04-27T05:55:38;98920.10;;;5.62;58.61
57847;BME280;43675;50.030;21.952;2023-04-27T05:58:05;98919.81;;;5.68;58.37
57847;BME280;43675;50.030;21.952;2023-04-27T06:00:31;98923.02;;;5.76;58.45
57847;BME280;43675;50.030;21.952;2023-04-27T06:02:58;98922.70;;;5.84;58.27
57847;BME280;43675;50.030;21.952;2023-04-27T06:05:24;98924.40;;;5.92;58.21
57847;BME280;43675;50.030;21.952;2023-04-27T06:07:51;98924.92;;;5.98;58.01
57847;BME280;43675;50.030;21.952;2023-04-27T06:10:17;98930.59;;;6.04;57.76
57847;BME280;43675;50.030;21.952;2023-04-27T06:12:44;98921.39;;;6.08;57.75
57847;BME280;43675;50.030;21.952;2023-04-27T06:15:10;98918.99;;;6.16;57.71
57847;BME280;43675;50.030;21.952;2023-04-27T06:17:38;98923.84;;;6.25;57.62
57847;BME280;43675;50.030;21.952;2023-04-27T06:20:05;98930.96;;;6.32;57.38
57847;BME280;43675;50.030;21.952;2023-04-27T06:22:32;98929.98;;;6.35;57.18
57847;BME280;43675;50.030;21.952;2023-04-27T06:24:59;98930.85;;;6.38;57.07
57847;BME280;43675;50.030;21.952;2023-04-27T06:27:26;98930.10;;;6.40;57.04
57847;BME280;43675;50.030;21.952;2023-04-27T06:29:52;98935.52;;;6.45;57.10
57847;BME280;43675;50.030;21.952;2023-04-27T06:32:19;98934.54;;;6.47;57.02
57847;BME280;43675;50.030;21.952;2023-04-27T06:34:46;98940.63;;;6.54;57.09
57847;BME280;43675;50.030;21.952;2023-04-27T06:37:12;98937.55;;;6.62;57.16
57847;BME280;43675;50.030;21.952;2023-04-27T06:39:39;98940.60;;;6.69;56.79
57847;BME280;43675;50.030;21.952;2023-04-27T06:42:05;98938.77;;;6.74;56.54
57847;BME280;43675;50.030;21.952;2023-04-27T06:44:32;98939.41;;;6.78;56.49
57847;BME280;43675;50.030;21.952;2023-04-27T06:46:58;98939.17;;;6.84;56.60
57847;BME280;43675;50.030;21.952;2023-04-27T06:49:25;98940.29;;;6.94;56.55
57847;BME280;43675;50.030;21.952;2023-04-27T06:51:51;98939.95;;;7.05;56.55
57847;BME280;43675;50.030;21.952;2023-04-27T06:54:18;98941.50;;;7.22;56.45
57847;BME280;43675;50.030;21.952;2023-04-27T06:56:44;98946.33;;;7.40;56.36
57847;BME280;43675;50.030;21.952;2023-04-27T06:59:11;98950.77;;;7.62;56.28
57847;BME280;43675;50.030;21.952;2023-04-27T07:01:37;98947.55;;;7.87;55.96
57847;BME280;43675;50.030;21.952;2023-04-27T07:04:04;98946.91;;;8.12;55.55
57847;BME280;43675;50.030;21.952;2023-04-27T07:06:31;98945.61;;;8.38;54.92
57847;BME280;43675;50.030;21.952;2023-04-27T07:08:58;98944.42;;;8.67;54.60
57847;BME280;43675;50.030;21.952;2023-04-27T07:11:25;98943.39;;;9.02;54.36
57847;BME280;43675;50.030;21.952;2023-04-27T07:13:51;98945.27;;;9.46;53.99
57847;BME280;43675;50.030;21.952;2023-04-27T07:16:18;98945.98;;;9.91;52.94
57847;BME280;43675;50.030;21.952;2023-04-27T07:18:44;98941.58;;;10.19;51.93
57847;BME280;43675;50.030;21.952;2023-04-27T07:21:11;98940.61;;;10.40;51.18
57847;BME280;43675;50.030;21.952;2023-04-27T07:23:38;98932.21;;;10.54;50.44
57847;BME280;43675;50.030;21.952;2023-04-27T07:26:05;98935.89;;;10.79;50.66
57847;BME280;43675;50.030;21.952;2023-04-27T07:28:31;98933.37;;;11.02;50.26
57847;BME280;43675;50.030;21.952;2023-04-27T07:30:58;98937.29;;;11.26;49.97
57847;BME280;43675;50.030;21.952;2023-04-27T07:33:24;98941.79;;;11.40;49.32
57847;BME280;43675;50.030;21.952;2023-04-27T07:35:51;98940.77;;;11.27;48.93
57847;BME280;43675;50.030;21.952;2023-04-27T07:38:17;98949.04;;;10.97;49.16
57847;BME280;43675;50.030;21.952;2023-04-27T07:40:44;98951.23;;;10.79;49.50
57847;BME280;43675;50.030;21.952;2023-04-27T07:43:10;98954.41;;;10.67;49.86
57847;BME280;43675;50.030;21.952;2023-04-27T07:45:37;98957.70;;;10.52;50.06
57847;BME280;43675;50.030;21.952;2023-04-27T07:48:04;98958.19;;;10.32;50.48
57847;BME280;43675;50.030;21.952;2023-04-27T07:50:31;98958.64;;;10.27;50.51
57847;BME280;43675;50.030;21.952;2023-04-27T07:52:58;98959.95;;;10.39;50.61
57847;BME280;43675;50.030;21.952;2023-04-27T07:55:25;98960.79;;;10.46;50.10
57847;BME280;43675;50.030;21.952;2023-04-27T07:57:52;98959.72;;;10.45;50.12
57847;BME280;43675;50.030;21.952;2023-04-27T08:00:19;98960.83;;;10.52;50.15
57847;BME280;43675;50.030;21.952;2023-04-27T08:02:47;98959.96;;;10.52;49.89
57847;BME280;43675;50.030;21.952;2023-04-27T08:05:13;98963.01;;;10.56;49.78
57847;BME280;43675;50.030;21.952;2023-04-27T08:07:40;98964.51;;;10.50;49.27
57847;BME280;43675;50.030;21.952;2023-04-27T08:10:07;98964.10;;;10.38;49.49
57847;BME280;43675;50.030;21.952;2023-04-27T08:12:34;98966.43;;;10.26;49.58
57847;BME280;43675;50.030;21.952;2023-04-27T08:15:00;98967.17;;;10.10;49.77
57847;BME280;43675;50.030;21.952;2023-04-27T08:17:27;98969.20;;;9.92;49.95
57847;BME280;43675;50.030;21.952;2023-04-27T08:19:53;98974.86;;;9.77;50.04
57847;BME280;43675;50.030;21.952;2023-04-27T08:22:20;98973.57;;;9.62;50.22
57847;BME280;43675;50.030;21.952;2023-04-27T08:24:46;98974.10;;;9.50;50.39
57847;BME280;43675;50.030;21.952;2023-04-27T08:27:13;98968.77;;;9.44;50.59
57847;BME280;43675;50.030;21.952;2023-04-27T08:29:47;98968.84;;;9.50;50.59
57847;BME280;43675;50.030;21.952;2023-04-27T08:32:14;98965.69;;;9.76;50.80
57847;BME280;43675;50.030;21.952;2023-04-27T08:34:41;98958.20;;;10.18;50.70
57847;BME280;43675;50.030;21.952;2023-04-27T08:37:07;98959.45;;;10.68;50.08
57847;BME280;43675;50.030;21.952;2023-04-27T08:39:34;98963.06;;;11.03;48.44
57847;BME280;43675;50.030;21.952;2023-04-27T08:42:00;98955.82;;;11.24;47.45
57847;BME280;43675;50.030;21.952;2023-04-27T08:44:27;98959.14;;;11.52;47.11
57847;BME280;43675;50.030;21.952;2023-04-27T08:46:54;98957.96;;;11.79;46.68
57847;BME280;43675;50.030;21.952;2023-04-27T08:49:21;98957.80;;;11.85;45.06
57847;BME280;43675;50.030;21.952;2023-04-27T08:51:47;98952.73;;;11.76;44.34
57847;BME280;43675;50.030;21.952;2023-04-27T08:54:14;98955.52;;;11.69;44.09
57847;BME280;43675;50.030;21.952;2023-04-27T08:56:40;98954.43;;;11.67;44.20
57847;BME280;43675;50.030;21.952;2023-04-27T08:59:15;98950.37;;;11.79;44.01
57847;BME280;43675;50.030;21.952;2023-04-27T09:01:46;98950.31;;;11.99;44.05
57847;BME280;43675;50.030;21.952;2023-04-27T09:04:13;98941.02;;;12.08;43.26
57847;BME280;43675;50.030;21.952;2023-04-27T09:06:40;98936.90;;;12.06;42.77
57847;BME280;43675;50.030;21.952;2023-04-27T09:09:07;98932.71;;;11.89;42.79
57847;BME280;43675;50.030;21.952;2023-04-27T09:11:35;98940.20;;;11.83;42.87
57847;BME280;43675;50.030;21.952;2023-04-27T09:14:14;98935.82;;;11.75;42.81
57847;BME280;43675;50.030;21.952;2023-04-27T09:16:41;98935.98;;;11.72;42.72
57847;BME280;43675;50.030;21.952;2023-04-27T09:19:08;98935.66;;;11.81;42.76
57847;BME280;43675;50.030;21.952;2023-04-27T09:21:35;98933.68;;;11.88;42.56
57847;BME280;43675;50.030;21.952;2023-04-27T09:24:11;98933.89;;;11.78;41.93
57847;BME280;43675;50.030;21.952;2023-04-27T09:26:39;98938.02;;;11.59;42.03
57847;BME280;43675;50.030;21.952;2023-04-27T09:29:06;98940.63;;;11.41;41.61
57847;BME280;43675;50.030;21.952;2023-04-27T09:31:33;98938.11;;;11.16;41.79
57847;BME280;43675;50.030;21.952;2023-04-27T09:34:01;98937.72;;;10.98;41.82
57847;BME280;43675;50.030;21.952;2023-04-27T09:36:29;98936.86;;;10.68;41.59
57847;BME280;43675;50.030;21.952;2023-04-27T09:38:56;98940.36;;;10.43;41.80
57847;BME280;43675;50.030;21.952;2023-04-27T09:41:24;98940.68;;;10.20;41.85
57847;BME280;43675;50.030;21.952;2023-04-27T09:43:51;98942.81;;;10.01;42.12
57847;BME280;43675;50.030;21.952;2023-04-27T09:46:21;98945.06;;;9.87;42.05
57847;BME280;43675;50.030;21.952;2023-04-27T09:48:48;98945.48;;;9.78;42.05
57847;BME280;43675;50.030;21.952;2023-04-27T09:51:15;98948.16;;;9.71;41.95
57847;BME280;43675;50.030;21.952;2023-04-27T09:53:53;98945.31;;;9.69;41.83
57847;BME280;43675;50.030;21.952;2023-04-27T09:56:38;98945.90;;;9.73;41.74
57847;BME280;43675;50.030;21.952;2023-04-27T10:01:49;98944.61;;;10.12;41.84
57847;BME280;43675;50.030;21.952;2023-04-27T10:04:32;98941.88;;;10.34;41.58
57847;BME280;43675;50.030;21.952;2023-04-27T10:07:06;98940.83;;;10.59;41.20
57847;BME280;43675;50.030;21.952;2023-04-27T10:09:40;98941.61;;;10.76;40.48
57847;BME280;43675;50.030;21.952;2023-04-27T10:12:21;98939.11;;;10.85;40.58
57847;BME280;43675;50.030;21.952;2023-04-27T10:14:49;98943.11;;;10.90;40.91
57847;BME280;43675;50.030;21.952;2023-04-27T10:17:17;98940.98;;;10.96;40.96
57847;BME280;43675;50.030;21.952;2023-04-27T10:19:55;98939.69;;;11.02;41.07
57847;BME280;43675;50.030;21.952;2023-04-27T10:22:22;98941.25;;;11.27;41.06
57847;BME280;43675;50.030;21.952;2023-04-27T10:24:50;98941.25;;;11.59;40.68
57847;BME280;43675;50.030;21.952;2023-04-27T10:27:18;98930.12;;;11.80;40.14
57847;BME280;43675;50.030;21.952;2023-04-27T10:29:46;98925.17;;;12.03;40.07
57847;BME280;43675;50.030;21.952;2023-04-27T10:32:19;98922.74;;;12.23;39.79
57847;BME280;43675;50.030;21.952;2023-04-27T10:34:46;98920.73;;;12.48;39.59
57847;BME280;43675;50.030;21.952;2023-04-27T10:37:13;98923.07;;;12.67;39.49
57847;BME280;43675;50.030;21.952;2023-04-27T10:39:41;98918.99;;;12.85;39.56
57847;BME280;43675;50.030;21.952;2023-04-27T10:42:08;98924.77;;;13.05;39.12
57847;BME280;43675;50.030;21.952;2023-04-27T10:44:36;98925.42;;;13.05;38.38
57847;BME280;43675;50.030;21.952;2023-04-27T10:47:14;98922.81;;;12.83;37.66
57847;BME280;43675;50.030;21.952;2023-04-27T10:49:42;98924.45;;;12.57;37.71
57847;BME280;43675;50.030;21.952;2023-04-27T10:52:08;98924.02;;;12.41;37.45
57847;BME280;43675;50.030;21.952;2023-04-27T10:54:35;98923.11;;;12.28;37.45
57847;BME280;43675;50.030;21.952;2023-04-27T10:57:09;98922.16;;;12.29;37.10
57847;BME280;43675;50.030;21.952;2023-04-27T10:59:52;98922.51;;;12.46;37.47
57847;BME280;43675;50.030;21.952;2023-04-27T11:02:26;98923.26;;;12.82;37.15
57847;BME280;43675;50.030;21.952;2023-04-27T11:04:54;98915.83;;;13.10;36.94
57847;BME280;43675;50.030;21.952;2023-04-27T11:07:25;98919.65;;;13.36;36.79
57847;BME280;43675;50.030;21.952;2023-04-27T11:09:52;98921.46;;;13.61;36.29
57847;BME280;43675;50.030;21.952;2023-04-27T11:12:20;98920.17;;;13.92;36.30
57847;BME280;43675;50.030;21.952;2023-04-27T11:14:46;98918.88;;;14.36;35.95
57847;BME280;43675;50.030;21.952;2023-04-27T11:17:13;98921.16;;;14.62;35.43
57847;BME280;43675;50.030;21.952;2023-04-27T11:19:46;98921.65;;;14.64;35.43
57847;BME280;43675;50.030;21.952;2023-04-27T11:22:14;98923.39;;;14.60;35.17
57847;BME280;43675;50.030;21.952;2023-04-27T11:24:48;98922.79;;;14.42;34.96
57847;BME280;43675;50.030;21.952;2023-04-27T11:27:15;98927.74;;;14.30;35.43
57847;BME280;43675;50.030;21.952;2023-04-27T11:29:42;98928.16;;;14.02;35.53
57847;BME280;43675;50.030;21.952;2023-04-27T11:32:20;98931.20;;;13.69;35.79
57847;BME280;43675;50.030;21.952;2023-04-27T11:34:49;98934.90;;;13.50;36.41
57847;BME280;43675;50.030;21.952;2023-04-27T11:37:21;98933.27;;;13.41;36.09
57847;BME280;43675;50.030;21.952;2023-04-27T11:39:48;98930.89;;;13.33;36.35
57847;BME280;43675;50.030;21.952;2023-04-27T11:42:26;98933.45;;;13.36;36.71
57847;BME280;43675;50.030;21.952;2023-04-27T11:47:20;98935.48;;;13.33;36.55
57847;BME280;43675;50.030;21.952;2023-04-27T11:49:51;98932.83;;;13.29;36.59
57847;BME280;43675;50.030;21.952;2023-04-27T11:52:17;98932.19;;;13.48;36.74
57847;BME280;43675;50.030;21.952;2023-04-27T11:57:14;98920.24;;;14.09;36.45
57847;BME280;43675;50.030;21.952;2023-04-27T11:59:40;98923.33;;;14.24;35.96
57847;BME280;43675;50.030;21.952;2023-04-27T12:02:07;98924.54;;;14.05;35.06
57847;BME280;43675;50.030;21.952;2023-04-27T12:04:34;98927.55;;;13.81;34.82
57847;BME280;43675;50.030;21.952;2023-04-27T12:07:01;98932.94;;;13.51;35.08
57847;BME280;43675;50.030;21.952;2023-04-27T12:09:27;98931.69;;;13.28;35.35
57847;BME280;43675;50.030;21.952;2023-04-27T12:11:54;98938.67;;;13.14;35.51
57847;BME280;43675;50.030;21.952;2023-04-27T12:14:20;98938.84;;;12.89;35.64
57847;BME280;43675;50.030;21.952;2023-04-27T12:16:47;98939.96;;;12.57;36.09
57847;BME280;43675;50.030;21.952;2023-04-27T12:19:14;98937.61;;;12.22;36.15
57847;BME280;43675;50.030;21.952;2023-04-27T12:21:41;98939.56;;;12.04;36.59
57847;BME280;43675;50.030;21.952;2023-04-27T12:24:08;98935.61;;;12.01;36.74
57847;BME280;43675;50.030;21.952;2023-04-27T12:26:34;98936.98;;;12.07;36.73
57847;BME280;43675;50.030;21.952;2023-04-27T12:29:01;98938.89;;;12.16;36.42
57847;BME280;43675;50.030;21.952;2023-04-27T12:31:27;98936.98;;;12.31;36.04
57847;BME280;43675;50.030;21.952;2023-04-27T12:33:54;98933.11;;;12.41;35.24
57847;BME280;43675;50.030;21.952;2023-04-27T12:36:21;98928.52;;;12.52;35.08
57847;BME280;43675;50.030;21.952;2023-04-27T12:38:47;98933.38;;;12.76;35.23
57847;BME280;43675;50.030;21.952;2023-04-27T12:41:14;98935.03;;;13.01;34.87
57847;BME280;43675;50.030;21.952;2023-04-27T12:43:40;98934.91;;;13.09;34.41
57847;BME280;43675;50.030;21.952;2023-04-27T12:46:07;98942.43;;;12.94;34.28
57847;BME280;43675;50.030;21.952;2023-04-27T12:48:33;98938.72;;;12.67;34.60
57847;BME280;43675;50.030;21.952;2023-04-27T12:51:00;98938.09;;;12.40;35.06
57847;BME280;43675;50.030;21.952;2023-04-27T12:53:27;98942.41;;;12.12;35.39
57847;BME280;43675;50.030;21.952;2023-04-27T12:55:53;98946.85;;;11.84;35.95
57847;BME280;43675;50.030;21.952;2023-04-27T12:58:20;98947.89;;;11.64;36.40
57847;BME280;43675;50.030;21.952;2023-04-27T13:00:46;98949.92;;;11.43;37.06
57847;BME280;43675;50.030;21.952;2023-04-27T13:03:13;98952.08;;;11.28;37.51